Time;durP1;ratioP1;P1;durP2;ratioP2;P2;SDS_P1;SDS_P2;PMS_P1;PMS_P2;Temp;Humidity;BMP_temperature;BMP_pressure;BME280_temperature;BME280_humidity;BME280_pressure;Samples;Min_cycle;Max_cycle;Signal;HPM_P1;HPM_P2
2024/02/24 00:01:59;;;;;;;5.05;2.60;;;5.30;99.90;;;;;;7373189;19;20515;-71
2024/02/24 00:04:28;;;;;;;8.13;3.50;;;5.20;99.90;;;;;;7373009;19;20022;-71
2024/02/24 00:06:55;;;;;;;8.98;2.80;;;5.20;99.90;;;;;;7370882;19;20097;-72
2024/02/24 00:09:22;;;;;;;5.13;2.80;;;5.20;99.90;;;;;;7375184;19;20086;-71
2024/02/24 00:11:49;;;;;;;8.88;2.95;;;5.10;99.90;;;;;;7371057;19;20081;-69
2024/02/24 00:14:15;;;;;;;6.82;3.00;;;5.20;99.90;;;;;;7373772;19;21019;-69
2024/02/24 00:16:41;;;;;;;5.03;2.92;;;5.20;99.90;;;;;;7371504;19;20503;-69
2024/02/24 00:19:09;;;;;;;5.43;3.38;;;5.10;99.90;;;;;;7370514;19;20646;-69
2024/02/24 00:21:35;;;;;;;7.15;2.63;;;5.20;99.90;;;;;;7373884;19;20019;-72
2024/02/24 00:24:01;;;;;;;5.70;3.05;;;5.10;99.90;;;;;;7371709;19;20098;-71
2024/02/24 00:26:29;;;;;;;5.55;3.40;;;5.20;99.90;;;;;;7373679;19;20082;-71
2024/02/24 00:28:55;;;;;;;8.93;3.60;;;5.20;99.90;;;;;;7371783;19;20014;-71
2024/02/24 00:31:22;;;;;;;5.70;3.28;;;5.20;99.90;;;;;;7373140;19;20094;-71
2024/02/24 00:33:48;;;;;;;8.25;3.30;;;5.10;99.90;;;;;;7373929;19;20026;-71
2024/02/24 00:36:15;;;;;;;4.35;3.00;;;5.20;99.90;;;;;;7370913;19;20057;-69
2024/02/24 00:38:41;;;;;;;5.88;3.85;;;5.20;99.90;;;;;;7367576;19;20073;-69
2024/02/24 00:41:09;;;;;;;5.82;2.78;;;5.20;99.90;;;;;;7374439;19;20481;-69
2024/02/24 00:43:37;;;;;;;5.05;3.00;;;5.20;99.90;;;;;;7370178;19;20014;-69
2024/02/24 00:46:07;;;;;;;5.38;2.95;;;5.20;99.90;;;;;;7374988;19;20025;-69
2024/02/24 00:48:35;;;;;;;4.25;2.88;;;5.20;99.90;;;;;;7370460;19;20569;-69
2024/02/24 00:51:02;;;;;;;5.43;3.03;;;5.20;99.90;;;;;;7372039;19;20514;-68
2024/02/24 00:53:29;;;;;;;6.88;3.35;;;5.30;99.90;;;;;;7369825;19;20753;-68
2024/02/24 00:55:57;;;;;;;5.38;3.10;;;5.30;99.90;;;;;;7372199;19;20010;-69
2024/02/24 00:58:24;;;;;;;5.40;3.10;;;5.40;99.90;;;;;;7369935;19;21147;-68
2024/02/24 01:00:52;;;;;;;4.25;3.33;;;5.40;99.90;;;;;;7372991;19;20015;-69
2024/02/24 01:03:21;;;;;;;7.20;3.80;;;5.50;99.90;;;;;;7372097;19;20014;-71
2024/02/24 01:05:49;;;;;;;6.32;3.50;;;5.50;99.90;;;;;;7370537;19;20025;-69
2024/02/24 01:08:16;;;;;;;3.65;2.90;;;5.50;99.90;;;;;;7369346;19;20763;-68
2024/02/24 01:10:44;;;;;;;5.75;3.40;;;5.50;99.90;;;;;;7371132;19;20042;-69
2024/02/24 01:13:11;;;;;;;5.65;3.60;;;5.60;99.90;;;;;;7367950;19;20042;-71
2024/02/24 01:15:39;;;;;;;5.53;3.50;;;5.50;99.90;;;;;;7370320;19;20026;-71
2024/02/24 01:18:05;;;;;;;8.07;3.92;;;5.50;99.90;;;;;;7370386;19;20015;-71
2024/02/24 01:20:32;;;;;;;6.43;3.67;;;5.50;99.90;;;;;;7364531;19;20038;-68
2024/02/24 01:23:00;;;;;;;7.28;3.83;;;5.50;99.90;;;;;;7370435;19;20070;-71
2024/02/24 01:25:26;;;;;;;6.28;3.35;;;5.50;99.90;;;;;;7367994;19;20057;-68
2024/02/24 01:27:53;;;;;;;5.90;3.30;;;5.50;99.90;;;;;;7371898;19;20021;-68
2024/02/24 01:30:24;;;;;;;7.03;3.97;;;5.50;99.90;;;;;;7367148;19;20022;-70
2024/02/24 01:32:51;;;;;;;6.18;3.78;;;5.40;99.90;;;;;;7370636;19;20014;-70
2024/02/24 01:35:18;;;;;;;7.72;3.78;;;5.50;99.90;;;;;;7365459;19;20019;-69
2024/02/24 01:37:45;;;;;;;5.40;3.72;;;5.40;99.90;;;;;;7370435;19;20036;-70
2024/02/24 01:40:11;;;;;;;5.18;3.70;;;5.40;99.90;;;;;;7372031;19;20022;-72
2024/02/24 01:42:43;;;;;;;9.25;3.72;;;5.30;99.90;;;;;;7367426;19;20118;-70
2024/02/24 01:45:11;;;;;;;8.52;3.67;;;5.30;99.90;;;;;;7368978;19;20018;-70
2024/02/24 01:47:38;;;;;;;4.72;3.28;;;5.20;99.90;;;;;;7366114;19;20035;-68
2024/02/24 01:50:05;;;;;;;4.47;3.08;;;5.10;99.90;;;;;;7372550;19;20759;-68
2024/02/24 01:52:36;;;;;;;4.85;3.10;;;5.10;99.90;;;;;;7364341;19;20039;-68
2024/02/24 01:55:05;;;;;;;5.75;3.05;;;5.10;99.90;;;;;;7371008;19;20019;-68
2024/02/24 01:57:44;;;;;;;6.30;3.35;;;5.00;99.90;;;;;;7368705;19;20112;-68
2024/02/24 02:00:12;;;;;;;4.57;2.95;;;5.00;99.90;;;;;;7367515;19;20014;-70
2024/02/24 02:02:46;;;;;;;4.10;2.65;;;5.00;99.90;;;;;;7362779;19;20585;-72
2024/02/24 02:05:13;;;;;;;4.40;3.10;;;4.90;99.90;;;;;;7371555;19;20015;-70
2024/02/24 02:07:39;;;;;;;3.97;2.65;;;4.90;99.90;;;;;;7366345;19;20043;-70
2024/02/24 02:10:06;;;;;;;7.13;3.25;;;4.90;99.90;;;;;;7369890;19;20093;-69
2024/02/24 02:12:35;;;;;;;4.15;2.95;;;4.90;99.90;;;;;;7370393;19;20014;-68
2024/02/24 02:15:05;;;;;;;5.85;2.83;;;4.80;99.90;;;;;;7364973;19;20021;-68
2024/02/24 02:17:34;;;;;;;4.97;2.90;;;4.70;99.90;;;;;;7362690;19;20355;-68
2024/02/24 02:20:04;;;;;;;4.70;3.03;;;4.70;99.90;;;;;;7366212;19;20020;-68
2024/02/24 02:22:32;;;;;;;5.90;3.00;;;4.60;99.90;;;;;;7370949;19;20700;-71
2024/02/24 02:25:02;;;;;;;5.68;3.13;;;4.60;99.90;;;;;;7366569;19;20685;-71
2024/02/24 02:27:36;;;;;;;6.20;2.88;;;4.60;99.90;;;;;;7366940;19;20015;-68
2024/02/24 02:30:08;;;;;;;5.68;3.15;;;4.50;99.90;;;;;;7370106;19;20077;-71
2024/02/24 02:32:38;;;;;;;5.60;3.03;;;4.50;99.90;;;;;;7367020;19;20022;-71
2024/02/24 02:35:06;;;;;;;5.38;3.38;;;4.40;99.90;;;;;;7365984;19;20018;-71
2024/02/24 02:37:34;;;;;;;8.98;3.35;;;4.40;99.90;;;;;;7364334;19;20017;-71
2024/02/24 02:40:02;;;;;;;7.20;2.92;;;4.40;99.90;;;;;;7368413;19;20587;-68
2024/02/24 02:42:30;;;;;;;7.47;3.22;;;4.30;99.90;;;;;;7367465;19;20019;-68
2024/02/24 02:44:59;;;;;;;3.58;2.97;;;4.30;99.90;;;;;;7365985;19;20471;-69
2024/02/24 02:47:26;;;;;;;5.53;3.15;;;4.30;99.90;;;;;;7367508;19;20018;-69
2024/02/24 02:49:53;;;;;;;4.85;3.22;;;4.30;99.90;;;;;;7365229;19;20018;-71
2024/02/24 02:52:21;;;;;;;5.38;3.08;;;4.40;99.90;;;;;;7366805;19;20015;-72
2024/02/24 02:54:48;;;;;;;4.78;2.53;;;4.30;99.90;;;;;;7364709;19;20051;-71
2024/02/24 02:57:23;;;;;;;6.28;3.22;;;4.20;99.90;;;;;;7363220;19;20022;-71
2024/02/24 02:59:53;;;;;;;5.60;3.33;;;4.20;99.90;;;;;;7367044;19;20038;-71
2024/02/24 03:02:22;;;;;;;5.65;2.88;;;4.20;99.90;;;;;;7366001;19;20470;-71
2024/02/24 03:04:53;;;;;;;4.15;3.08;;;4.10;99.90;;;;;;7367008;19;20467;-72
2024/02/24 03:07:23;;;;;;;4.53;2.72;;;4.10;99.90;;;;;;7361860;19;20018;-71
2024/02/24 03:09:51;;;;;;;7.05;3.45;;;4.10;99.90;;;;;;7365317;19;20033;-71
2024/02/24 03:12:20;;;;;;;5.75;3.33;;;4.10;99.90;;;;;;7366630;19;20014;-71
2024/02/24 03:14:49;;;;;;;6.45;3.08;;;4.20;99.90;;;;;;7365408;19;20038;-71
2024/02/24 03:17:16;;;;;;;4.32;2.90;;;4.10;99.90;;;;;;7363563;19;20021;-68
2024/02/24 03:19:43;;;;;;;10.35;3.10;;;4.10;99.90;;;;;;7364129;19;20014;-68
2024/02/24 03:22:11;;;;;;;4.03;3.30;;;4.10;99.90;;;;;;7367368;19;20703;-69
2024/02/24 03:24:42;;;;;;;4.75;3.13;;;4.10;99.90;;;;;;7365287;19;20081;-68
2024/02/24 03:27:10;;;;;;;8.00;3.92;;;4.10;99.90;;;;;;7365722;19;20489;-71
2024/02/24 03:29:37;;;;;;;7.20;3.00;;;4.10;99.90;;;;;;7362039;19;20015;-71
2024/02/24 03:32:07;;;;;;;6.05;3.65;;;4.00;99.90;;;;;;7366804;19;20015;-71
2024/02/24 03:34:35;;;;;;;6.45;3.30;;;4.00;99.90;;;;;;7365778;19;20067;-69
2024/02/24 03:37:04;;;;;;;6.50;3.10;;;4.00;99.90;;;;;;7368356;19;20019;-69
2024/02/24 03:39:32;;;;;;;7.30;3.78;;;3.90;99.90;;;;;;7365721;19;20018;-69
2024/02/24 03:41:59;;;;;;;5.68;2.85;;;4.00;99.90;;;;;;7363681;19;20375;-71
2024/02/24 03:44:26;;;;;;;4.68;3.33;;;3.90;99.90;;;;;;7365569;19;20027;-71
2024/02/24 03:46:54;;;;;;;6.03;2.97;;;3.90;99.90;;;;;;7362223;19;20011;-69
2024/02/24 03:49:21;;;;;;;5.18;3.20;;;3.90;99.90;;;;;;7363523;19;20022;-70
2024/02/24 03:51:48;;;;;;;5.80;3.35;;;3.90;99.90;;;;;;7364777;19;20034;-71
2024/02/24 03:54:15;;;;;;;5.90;3.45;;;3.90;99.90;;;;;;7366346;19;20112;-72
2024/02/24 03:56:49;;;;;;;6.28;3.60;;;3.90;99.90;;;;;;7365374;19;20063;-71
2024/02/24 03:59:17;;;;;;;5.25;3.50;;;3.90;99.90;;;;;;7359323;19;20018;-71
2024/02/24 04:01:44;;;;;;;5.13;3.03;;;3.90;99.90;;;;;;7364003;19;20781;-71
2024/02/24 04:04:11;;;;;;;5.43;3.55;;;3.90;99.90;;;;;;7366801;19;20021;-71
2024/02/24 04:06:42;;;;;;;5.55;3.03;;;3.80;99.90;;;;;;7365477;19;20270;-71
2024/02/24 04:09:09;;;;;;;5.38;2.72;;;3.80;99.90;;;;;;7366412;19;20015;-72
2024/02/24 04:11:39;;;;;;;5.10;3.22;;;3.90;99.90;;;;;;7364831;19;20018;-69
2024/02/24 04:14:06;;;;;;;5.95;3.42;;;3.90;99.90;;;;;;7366411;19;20014;-69
2024/02/24 04:16:37;;;;;;;8.27;3.08;;;3.90;99.90;;;;;;7373191;19;20483;-69
2024/02/24 04:19:08;;;;;;;6.53;3.30;;;3.90;99.90;;;;;;7368617;19;20022;-73
2024/02/24 04:21:35;;;;;;;6.88;3.60;;;4.00;99.90;;;;;;7372136;19;20022;-71
2024/02/24 04:24:03;;;;;;;5.25;3.25;;;3.80;99.90;;;;;;7367384;19;20114;-72
2024/02/24 04:26:30;;;;;;;6.05;3.13;;;3.90;99.90;;;;;;7372684;19;20029;-71
2024/02/24 04:28:58;;;;;;;5.45;3.50;;;3.90;99.90;;;;;;7375336;19;20042;-71
2024/02/24 04:31:26;;;;;;;5.28;3.00;;;3.80;99.90;;;;;;7371367;19;20558;-71
2024/02/24 04:33:54;;;;;;;5.78;3.05;;;3.80;99.90;;;;;;7372049;19;20026;-69
2024/02/24 04:36:21;;;;;;;5.22;3.40;;;3.80;99.90;;;;;;7369012;19;20014;-69
2024/02/24 04:38:49;;;;;;;5.22;3.10;;;3.80;99.90;;;;;;7369003;19;20015;-69
2024/02/24 04:41:19;;;;;;;7.38;3.03;;;3.80;99.90;;;;;;7368940;19;20385;-70
2024/02/24 04:43:47;;;;;;;4.55;3.20;;;3.80;99.90;;;;;;7374350;19;20018;-69
2024/02/24 04:46:14;;;;;;;4.97;3.50;;;3.80;99.90;;;;;;7371492;19;20366;-69
2024/02/24 04:48:42;;;;;;;4.53;3.20;;;3.80;99.90;;;;;;7370494;19;20031;-68
2024/02/24 04:51:09;;;;;;;3.90;2.92;;;3.80;99.90;;;;;;7372786;19;20024;-68
2024/02/24 04:53:36;;;;;;;6.18;3.13;;;3.80;99.90;;;;;;7374593;19;20010;-68
2024/02/24 04:56:04;;;;;;;7.55;3.30;;;3.80;99.90;;;;;;7370165;19;20048;-68
2024/02/24 04:58:32;;;;;;;7.50;3.40;;;3.80;99.90;;;;;;7370506;19;20048;-69
2024/02/24 05:00:59;;;;;;;8.13;3.70;;;3.90;99.90;;;;;;7368129;19;20019;-69
2024/02/24 05:03:25;;;;;;;4.50;2.88;;;3.90;99.90;;;;;;7367872;19;20044;-69
2024/02/24 05:05:52;;;;;;;5.05;2.78;;;3.90;99.90;;;;;;7371032;19;20014;-69
2024/02/24 05:08:19;;;;;;;4.22;3.00;;;3.90;99.90;;;;;;7368873;19;21761;-69
2024/02/24 05:10:46;;;;;;;5.22;3.40;;;3.90;99.90;;;;;;7372170;19;20023;-70
2024/02/24 05:13:12;;;;;;;4.90;3.15;;;3.90;99.90;;;;;;7368457;19;20026;-69
2024/02/24 05:15:39;;;;;;;5.28;3.10;;;3.80;99.90;;;;;;7369711;19;20014;-69
2024/02/24 05:18:06;;;;;;;4.70;3.00;;;3.80;99.90;;;;;;7369579;19;20019;-70
2024/02/24 05:20:32;;;;;;;5.15;3.00;;;3.80;99.90;;;;;;7366498;19;20015;-69
2024/02/24 05:23:00;;;;;;;4.13;3.35;;;3.80;99.90;;;;;;7362009;19;20021;-68
2024/02/24 05:25:27;;;;;;;4.28;3.00;;;3.70;99.90;;;;;;7370589;19;20025;-69
2024/02/24 05:27:54;;;;;;;4.40;3.22;;;3.70;99.90;;;;;;7367810;19;20157;-69
2024/02/24 05:30:23;;;;;;;5.38;3.55;;;3.60;99.90;;;;;;7372815;19;20481;-69
2024/02/24 05:32:51;;;;;;;5.22;3.50;;;3.70;99.90;;;;;;7368720;19;20029;-69
2024/02/24 05:35:17;;;;;;;5.85;3.35;;;3.60;99.90;;;;;;7371191;19;20026;-72
2024/02/24 05:37:43;;;;;;;5.80;3.75;;;3.60;99.90;;;;;;7369193;19;20029;-71
2024/02/24 05:40:10;;;;;;;5.97;3.45;;;3.50;99.90;;;;;;7364990;19;20063;-72
2024/02/24 05:42:37;;;;;;;7.22;3.80;;;3.50;99.90;;;;;;7368314;19;20026;-69
2024/02/24 05:45:04;;;;;;;4.78;3.33;;;3.40;99.90;;;;;;7368426;19;20021;-69
2024/02/24 05:47:31;;;;;;;4.95;3.83;;;3.40;99.90;;;;;;7374025;19;20096;-68
2024/02/24 05:49:57;;;;;;;6.90;4.18;;;3.40;99.90;;;;;;7368970;19;20023;-68
2024/02/24 05:52:26;;;;;;;6.25;4.03;;;3.30;99.90;;;;;;7369584;19;20405;-68
2024/02/24 05:54:53;;;;;;;5.15;3.78;;;3.30;99.90;;;;;;7368529;19;20025;-71
2024/02/24 05:57:21;;;;;;;6.25;3.85;;;3.20;99.90;;;;;;7365257;19;20010;-71
2024/02/24 05:59:47;;;;;;;5.07;3.97;;;3.30;99.90;;;;;;7365897;19;20125;-71
2024/02/24 06:02:15;;;;;;;4.63;3.80;;;3.30;99.90;;;;;;7368377;19;20014;-71
2024/02/24 06:04:45;;;;;;;6.68;4.22;;;3.30;99.90;;;;;;7370796;19;20014;-71
2024/02/24 06:07:13;;;;;;;6.82;4.50;;;3.30;99.90;;;;;;7366853;19;20014;-73
2024/02/24 06:09:40;;;;;;;4.97;3.92;;;3.30;99.90;;;;;;7366851;19;20037;-71
2024/02/24 06:12:07;;;;;;;5.28;4.28;;;3.20;99.90;;;;;;7373197;19;20018;-71
2024/02/24 06:14:35;;;;;;;7.80;4.93;;;3.30;99.90;;;;;;7362817;19;20018;-70
2024/02/24 06:17:02;;;;;;;6.90;4.40;;;3.30;99.90;;;;;;7369128;19;20497;-71
2024/02/24 06:19:29;;;;;;;6.25;4.53;;;3.40;99.90;;;;;;7364662;19;21456;-68
2024/02/24 06:21:56;;;;;;;5.80;4.53;;;3.40;99.90;;;;;;7367947;19;20029;-69
2024/02/24 06:24:23;;;;;;;10.63;4.85;;;3.40;99.90;;;;;;7367157;19;20066;-71
2024/02/24 06:26:51;;;;;;;7.30;4.65;;;3.40;99.90;;;;;;7366973;19;20089;-69
2024/02/24 06:29:18;;;;;;;6.45;4.97;;;3.50;99.90;;;;;;7364338;19;20041;-69
2024/02/24 06:31:46;;;;;;;7.40;5.43;;;3.50;99.90;;;;;;7361004;19;20014;-71
2024/02/24 06:34:14;;;;;;;6.35;4.75;;;3.50;99.90;;;;;;7366749;19;20021;-71
2024/02/24 06:36:41;;;;;;;8.23;5.13;;;3.60;99.90;;;;;;7364146;19;20053;-71
2024/02/24 06:39:08;;;;;;;7.75;5.05;;;3.60;99.90;;;;;;7364432;19;20047;-68
2024/02/24 06:41:36;;;;;;;6.45;5.30;;;3.70;99.90;;;;;;7362470;19;21093;-69
2024/02/24 06:44:04;;;;;;;6.15;5.15;;;3.70;99.90;;;;;;7364770;19;20006;-69
2024/02/24 06:46:37;;;;;;;7.22;5.25;;;3.70;99.90;;;;;;7370470;19;20688;-69
2024/02/24 06:49:06;;;;;;;9.00;5.60;;;3.80;99.90;;;;;;7359162;19;20034;-70
2024/02/24 06:51:33;;;;;;;6.90;4.90;;;3.80;99.90;;;;;;7363309;19;20813;-72
2024/02/24 06:54:00;;;;;;;6.07;5.32;;;3.80;99.90;;;;;;7364333;19;20042;-70
2024/02/24 06:56:30;;;;;;;7.78;5.60;;;3.80;99.90;;;;;;7364986;19;20019;-71
2024/02/24 06:58:58;;;;;;;9.73;5.63;;;3.80;99.90;;;;;;7359002;19;20024;-70
2024/02/24 07:01:25;;;;;;;10.02;6.28;;;3.80;99.90;;;;;;7361078;19;20014;-70
2024/02/24 07:03:54;;;;;;;12.10;7.28;;;3.90;99.90;;;;;;7362387;19;20031;-70
2024/02/24 07:06:22;;;;;;;8.88;6.10;;;3.90;99.90;;;;;;7367238;19;20074;-69
2024/02/24 07:08:51;;;;;;;9.35;6.70;;;3.90;99.90;;;;;;7356555;19;20510;-69
2024/02/24 07:11:19;;;;;;;8.15;5.85;;;3.90;99.90;;;;;;7361170;19;20010;-66
2024/02/24 07:13:46;;;;;;;8.30;6.38;;;4.00;99.90;;;;;;7359918;19;20015;-69
2024/02/24 07:16:15;;;;;;;9.25;5.50;;;4.00;99.90;;;;;;7363261;19;20442;-69
2024/02/24 07:18:43;;;;;;;11.48;6.35;;;4.10;99.90;;;;;;7362787;19;20482;-68
2024/02/24 07:21:11;;;;;;;9.63;5.85;;;4.10;99.90;;;;;;7364589;19;20028;-69
2024/02/24 07:23:38;;;;;;;8.40;5.28;;;4.20;99.90;;;;;;7370449;19;20135;-68
2024/02/24 07:26:06;;;;;;;7.93;6.20;;;4.30;99.90;;;;;;7363782;19;22002;-69
2024/02/24 07:28:34;;;;;;;8.65;6.53;;;4.30;99.90;;;;;;7371960;19;20029;-72
2024/02/24 07:31:01;;;;;;;8.00;6.07;;;4.40;99.90;;;;;;7364966;19;20010;-72
2024/02/24 07:33:30;;;;;;;8.00;5.93;;;4.40;99.90;;;;;;7368833;19;20478;-68
2024/02/24 07:35:57;;;;;;;7.85;5.43;;;4.50;99.90;;;;;;7366431;19;20011;-69
2024/02/24 07:38:24;;;;;;;9.35;5.60;;;4.50;99.90;;;;;;7368346;19;20015;-69
2024/02/24 07:40:51;;;;;;;6.50;5.72;;;4.60;99.90;;;;;;7367453;19;20045;-72
2024/02/24 07:43:18;;;;;;;9.50;6.28;;;4.60;99.90;;;;;;7365061;19;20010;-68
2024/02/24 07:45:46;;;;;;;7.70;5.45;;;4.70;99.90;;;;;;7366091;19;20050;-68
2024/02/24 07:48:15;;;;;;;6.35;5.40;;;4.70;99.90;;;;;;7371379;19;20018;-68
2024/02/24 07:50:42;;;;;;;9.43;5.70;;;4.80;99.90;;;;;;7371912;19;20014;-72
2024/02/24 07:53:10;;;;;;;6.82;5.32;;;4.80;99.90;;;;;;7371893;19;20011;-67
2024/02/24 07:55:38;;;;;;;9.05;5.55;;;4.90;99.90;;;;;;7374649;19;20409;-68
2024/02/24 07:58:05;;;;;;;11.20;6.45;;;4.90;99.90;;;;;;7374724;19;20556;-69
2024/02/24 08:00:32;;;;;;;9.25;6.13;;;5.00;99.90;;;;;;7367929;19;20478;-68
2024/02/24 08:02:59;;;;;;;7.00;5.75;;;5.00;99.90;;;;;;7371040;19;20106;-67
2024/02/24 08:05:26;;;;;;;6.68;5.45;;;5.10;99.90;;;;;;7373566;19;20866;-68
2024/02/24 08:07:54;;;;;;;7.65;5.82;;;5.20;99.90;;;;;;7371964;19;20014;-66
2024/02/24 08:10:21;;;;;;;8.60;6.35;;;5.20;99.90;;;;;;7373932;19;20038;-68
2024/02/24 08:12:49;;;;;;;7.47;6.25;;;5.30;99.90;;;;;;7371498;19;20014;-67
2024/02/24 08:15:19;;;;;;;9.93;5.88;;;5.40;99.90;;;;;;7373463;19;20014;-68
2024/02/24 08:17:46;;;;;;;8.98;5.90;;;5.40;99.90;;;;;;7377811;19;20014;-68
2024/02/24 08:20:14;;;;;;;7.85;5.65;;;5.50;99.90;;;;;;7363173;19;20048;-68
2024/02/24 08:22:43;;;;;;;7.72;5.80;;;5.50;99.90;;;;;;7372646;19;20015;-68
2024/02/24 08:25:10;;;;;;;6.18;5.55;;;5.60;99.90;;;;;;7369339;19;21290;-68
2024/02/24 08:27:38;;;;;;;8.50;6.10;;;5.70;99.90;;;;;;7371394;19;20018;-68
2024/02/24 08:30:08;;;;;;;7.85;5.80;;;5.70;99.90;;;;;;7369598;19;20082;-68
2024/02/24 08:32:35;;;;;;;8.25;6.03;;;5.80;99.90;;;;;;7378275;19;20018;-69
2024/02/24 08:35:02;;;;;;;7.70;6.07;;;5.90;99.90;;;;;;7373264;19;20021;-69
2024/02/24 08:37:29;;;;;;;8.93;5.72;;;5.90;99.90;;;;;;7371450;19;20078;-70
2024/02/24 08:39:56;;;;;;;8.73;5.93;;;5.90;99.90;;;;;;7376124;19;20022;-68
2024/02/24 08:42:24;;;;;;;8.30;5.75;;;6.00;99.90;;;;;;7372589;19;20022;-69
2024/02/24 08:44:52;;;;;;;8.20;6.00;;;6.00;99.90;;;;;;7375486;19;20048;-69
2024/02/24 08:47:20;;;;;;;6.97;6.00;;;6.10;99.90;;;;;;7367690;19;20022;-66
2024/02/24 08:49:49;;;;;;;8.70;6.15;;;6.20;99.90;;;;;;7368996;19;20019;-68
2024/02/24 08:52:16;;;;;;;6.90;6.03;;;6.30;99.90;;;;;;7368660;19;20038;-67
2024/02/24 08:54:44;;;;;;;7.65;6.45;;;6.60;99.90;;;;;;7371154;19;20074;-67
2024/02/24 08:57:11;;;;;;;8.52;6.53;;;6.80;99.90;;;;;;7366876;19;20764;-68
2024/02/24 08:59:39;;;;;;;9.23;6.50;;;6.90;99.90;;;;;;7367841;19;20014;-68
2024/02/24 09:02:07;;;;;;;10.55;7.22;;;6.90;99.90;;;;;;7371388;19;20017;-73
2024/02/24 09:04:38;;;;;;;7.53;6.32;;;6.90;99.90;;;;;;7374078;19;20020;-67
2024/02/24 09:07:05;;;;;;;10.07;7.70;;;6.90;99.90;;;;;;7359027;19;20014;-68
2024/02/24 09:09:33;;;;;;;9.85;6.78;;;6.80;99.90;;;;;;7372290;19;20478;-67
2024/02/24 09:12:02;;;;;;;8.07;6.20;;;6.70;99.90;;;;;;7367466;19;20010;-73
2024/02/24 09:14:29;;;;;;;9.00;7.07;;;6.70;99.90;;;;;;7370152;19;20025;-67
2024/02/24 09:16:56;;;;;;;10.52;7.45;;;6.70;99.90;;;;;;7370573;19;20018;-68
2024/02/24 09:19:26;;;;;;;10.65;7.63;;;6.60;99.90;;;;;;7374408;19;20022;-68
2024/02/24 09:21:53;;;;;;;9.65;6.57;;;6.70;99.90;;;;;;7365308;19;20018;-71
2024/02/24 09:24:21;;;;;;;10.88;7.13;;;6.60;99.90;;;;;;7372646;19;20018;-73
2024/02/24 09:26:49;;;;;;;9.60;7.53;;;6.70;99.90;;;;;;7363460;19;20022;-66
2024/02/24 09:29:16;;;;;;;9.15;7.50;;;6.80;99.90;;;;;;7371932;19;20389;-70
2024/02/24 09:31:44;;;;;;;9.13;7.13;;;6.90;99.90;;;;;;7370789;19;20788;-65
2024/02/24 09:34:11;;;;;;;9.75;8.63;;;7.00;99.90;;;;;;7368683;19;20030;-67
2024/02/24 09:36:41;;;;;;;8.15;7.20;;;7.40;99.90;;;;;;7366554;19;20363;-73
2024/02/24 09:39:11;;;;;;;8.00;6.95;;;7.50;99.90;;;;;;7363597;19;20437;-67
2024/02/24 09:41:39;;;;;;;7.78;6.93;;;7.60;99.90;;;;;;7366369;19;20018;-72
2024/02/24 09:44:08;;;;;;;9.10;7.47;;;7.80;99.90;;;;;;7366354;19;20022;-66
2024/02/24 09:46:36;;;;;;;10.45;7.55;;;7.90;99.90;;;;;;7369777;19;20658;-66
2024/02/24 09:49:08;;;;;;;9.43;7.60;;;8.00;99.90;;;;;;7367295;19;20019;-67
2024/02/24 09:51:36;;;;;;;11.32;7.85;;;8.00;99.90;;;;;;7370312;19;20035;-72
2024/02/24 09:54:04;;;;;;;8.63;7.72;;;7.90;99.90;;;;;;7367939;19;20022;-67
2024/02/24 09:56:33;;;;;;;8.65;7.63;;;7.80;99.90;;;;;;7368763;19;21274;-67
2024/02/24 09:59:01;;;;;;;7.90;6.78;;;7.80;99.90;;;;;;7371852;19;20010;-67
2024/02/24 10:01:28;;;;;;;8.90;7.28;;;7.70;99.90;;;;;;7369500;19;20026;-69
2024/02/24 10:03:55;;;;;;;9.13;7.95;;;7.70;99.90;;;;;;7374166;19;20100;-66
2024/02/24 10:06:26;;;;;;;9.15;8.25;;;7.70;99.90;;;;;;7358447;19;20010;-66
2024/02/24 10:08:54;;;;;;;10.55;7.82;;;7.80;99.90;;;;;;7366750;19;20113;-66
2024/02/24 10:11:22;;;;;;;8.10;7.13;;;7.80;99.90;;;;;;7358039;19;20478;-65
2024/02/24 10:13:53;;;;;;;8.98;6.72;;;8.00;99.90;;;;;;7365300;19;20033;-74
2024/02/24 10:16:23;;;;;;;7.85;7.03;;;8.10;99.90;;;;;;7365423;19;20030;-74
2024/02/24 10:18:51;;;;;;;8.23;6.63;;;8.10;99.90;;;;;;7368845;19;20017;-73
2024/02/24 10:21:19;;;;;;;9.27;7.03;;;7.90;99.90;;;;;;7364646;19;20022;-66
2024/02/24 10:23:46;;;;;;;8.35;6.80;;;7.90;99.90;;;;;;7364082;19;20107;-73
2024/02/24 10:26:15;;;;;;;7.15;6.25;;;7.80;99.90;;;;;;7365176;19;20016;-74
2024/02/24 10:28:42;;;;;;;6.88;6.20;;;7.80;99.90;;;;;;7367682;19;20014;-65
2024/02/24 10:31:10;;;;;;;8.45;6.60;;;7.70;99.90;;;;;;7368530;19;20018;-65
2024/02/24 10:33:39;;;;;;;9.63;7.18;;;7.80;99.90;;;;;;7355983;19;20014;-65
2024/02/24 10:36:08;;;;;;;8.07;6.38;;;8.00;99.90;;;;;;7366225;19;20019;-65
2024/02/24 10:38:40;;;;;;;8.68;5.72;;;8.20;99.90;;;;;;7370738;19;20032;-72
2024/02/24 10:41:11;;;;;;;8.73;6.20;;;8.30;99.90;;;;;;7368130;19;20543;-73
2024/02/24 10:43:39;;;;;;;9.27;6.28;;;8.30;99.90;;;;;;7368413;19;20019;-72
2024/02/24 10:46:06;;;;;;;9.57;5.95;;;8.40;99.90;;;;;;7369685;19;20467;-72
2024/02/24 10:48:34;;;;;;;7.38;5.78;;;8.40;99.90;;;;;;7368096;19;20891;-72
2024/02/24 10:51:02;;;;;;;6.80;6.10;;;8.50;99.90;;;;;;7369392;19;20019;-72
2024/02/24 10:53:34;;;;;;;7.18;5.43;;;8.70;99.90;;;;;;7364686;19;20014;-70
2024/02/24 10:56:02;;;;;;;7.00;5.60;;;9.10;99.90;;;;;;7365855;19;20366;-73
2024/02/24 10:58:29;;;;;;;5.32;4.50;;;9.10;99.90;;;;;;7369951;19;20007;-74
2024/02/24 11:00:58;;;;;;;7.28;5.60;;;9.00;99.90;;;;;;7369793;19;20018;-71
2024/02/24 11:03:25;;;;;;;9.57;5.05;;;9.10;99.90;;;;;;7371981;19;20030;-74
2024/02/24 11:05:53;;;;;;;7.00;5.07;;;8.90;99.90;;;;;;7371132;19;20022;-75
2024/02/24 11:08:44;;;;;;;7.55;4.70;;;8.80;99.90;;;;;;7368361;19;20074;-74
2024/02/24 11:11:12;;;;;;;5.15;4.57;;;8.60;99.90;;;;;;7371331;19;20014;-75
2024/02/24 11:13:49;;;;;;;5.63;4.85;;;8.60;99.90;;;;;;7373525;19;20482;-75
2024/02/24 11:16:18;;;;;;;7.57;5.43;;;8.70;99.90;;;;;;7370780;19;20425;-75
2024/02/24 11:18:49;;;;;;;12.75;5.75;;;8.90;99.90;;;;;;7375156;19;20018;-74
2024/02/24 11:21:16;;;;;;;6.95;4.50;;;9.00;99.90;;;;;;7362154;19;20011;-73
2024/02/24 11:23:44;;;;;;;5.97;4.95;;;9.30;99.90;;;;;;7376612;19;20672;-74
2024/02/24 11:26:20;;;;;;;7.07;4.95;;;9.30;99.90;;;;;;7378551;19;20054;-74
2024/02/24 11:29:03;;;;;;;6.22;4.90;;;9.30;99.90;;;;;;7378780;19;20018;-74
2024/02/24 11:31:40;;;;;;;;;;;9.30;99.90;;;;;;7381496;19;20014;-75
2024/02/24 11:34:08;;;;;;;8.93;4.75;;;9.10;99.90;;;;;;7378941;19;19922;-75
2024/02/24 11:36:38;;;;;;;5.28;4.28;;;9.20;99.90;;;;;;7382835;19;20011;-76
2024/02/24 11:39:12;;;;;;;5.18;4.22;;;9.10;99.90;;;;;;7372578;19;20474;-75
2024/02/24 11:41:43;;;;;;;5.35;4.50;;;9.00;99.90;;;;;;7374215;19;20355;-74
2024/02/24 11:44:11;;;;;;;6.25;3.92;;;9.00;99.90;;;;;;7377706;19;20017;-76
2024/02/24 11:46:39;;;;;;;5.68;3.85;;;9.00;99.90;;;;;;7382515;19;20618;-75
2024/02/24 11:49:06;;;;;;;5.20;4.43;;;9.20;99.90;;;;;;7372142;19;20043;-74
2024/02/24 11:51:34;;;;;;;6.05;3.95;;;9.50;99.90;;;;;;7374097;19;20094;-74
2024/02/24 11:54:03;;;;;;;6.13;4.88;;;9.40;99.90;;;;;;7372915;19;20055;-73
2024/02/24 11:56:30;;;;;;;8.48;4.43;;;9.20;99.90;;;;;;7372405;19;20022;-73
2024/02/24 11:58:56;;;;;;;5.13;3.20;;;9.10;99.90;;;;;;7375086;19;20055;-74
2024/02/24 12:01:24;;;;;;;5.88;3.78;;;8.80;99.90;;;;;;7374126;19;20101;-75
2024/02/24 12:03:59;;;;;;;4.25;3.13;;;8.50;99.90;;;;;;7377944;19;20019;-74
2024/02/24 12:06:27;;;;;;;4.57;3.20;;;7.80;99.90;;;;;;7377881;19;20102;-75
2024/02/24 12:08:55;;;;;;;6.25;4.07;;;7.20;99.90;;;;;;7376948;19;20739;-75
2024/02/24 12:11:23;;;;;;;5.80;3.30;;;6.80;99.90;;;;;;7377879;19;20045;-73
2024/02/24 12:13:51;;;;;;;4.45;3.55;;;6.70;99.90;;;;;;7373843;19;20026;-74
2024/02/24 12:16:18;;;;;;;6.20;3.38;;;6.70;99.90;;;;;;7375682;19;20740;-73
2024/02/24 12:18:45;;;;;;;4.85;3.08;;;6.80;99.90;;;;;;7378019;19;20041;-73
2024/02/24 12:21:13;;;;;;;4.55;3.42;;;6.70;99.90;;;;;;7372482;19;20022;-73
2024/02/24 12:23:41;;;;;;;3.30;2.63;;;6.70;99.90;;;;;;7375932;19;20026;-73
2024/02/24 12:26:16;;;;;;;3.25;2.63;;;6.50;99.90;;;;;;7373700;19;20030;-74
2024/02/24 12:28:45;;;;;;;5.53;3.75;;;6.30;99.90;;;;;;7375046;19;20014;-74
2024/02/24 12:31:13;;;;;;;6.55;3.80;;;5.90;99.90;;;;;;7378433;19;20096;-74
2024/02/24 12:33:42;;;;;;;6.55;3.80;;;5.80;99.90;;;;;;7371727;19;20019;-73
2024/02/24 12:36:15;;;;;;;6.47;4.22;;;5.60;99.90;;;;;;7374951;19;20044;-73
2024/02/24 12:38:43;;;;;;;6.40;5.05;;;5.50;99.90;;;;;;7370715;19;20042;-75
2024/02/24 12:41:11;;;;;;;7.95;5.40;;;5.40;99.90;;;;;;7374091;19;20015;-74
2024/02/24 12:43:39;;;;;;;8.05;5.57;;;5.30;99.90;;;;;;7375667;19;20017;-74
2024/02/24 12:46:07;;;;;;;8.93;5.35;;;5.30;99.90;;;;;;7377324;19;20022;-74
2024/02/24 12:48:35;;;;;;;9.13;6.03;;;5.30;99.90;;;;;;7376194;19;20022;-74
2024/02/24 12:51:02;;;;;;;8.32;5.78;;;5.30;99.90;;;;;;7386935;19;20458;-73
2024/02/24 12:53:29;;;;;;;9.43;6.53;;;5.50;99.90;;;;;;7384047;19;20026;-73
2024/02/24 12:55:59;;;;;;;9.00;6.90;;;5.60;99.90;;;;;;7384788;19;20031;-73
2024/02/24 12:58:26;;;;;;;10.93;6.60;;;5.70;99.90;;;;;;7383568;19;20010;-72
2024/02/24 13:00:56;;;;;;;13.10;8.95;;;5.70;99.90;;;;;;7381764;19;20514;-70
2024/02/24 13:03:24;;;;;;;12.43;9.40;;;5.80;99.90;;;;;;7382843;19;20011;-73